Time;durP1;ratioP1;P1;durP2;ratioP2;P2;SDS_P1;SDS_P2;PMS_P1;PMS_P2;Temp;Humidity;BMP_temperature;BMP_pressure;BME280_temperature;BME280_humidity;BME280_pressure;Samples;Min_cycle;Max_cycle;Signal;HPM_P1;HPM_P2
2022/07/05 00:00:04;;;;;;;;;;;20.40;99.90;;;;;;5025380;28;20448;-85
2022/07/05 00:02:31;;;;;;;;;;;20.40;99.90;;;;;;5025893;28;19916;-86
2022/07/05 00:04:56;;;;;;;;;;;20.40;99.90;;;;;;5026341;28;20474;-86
2022/07/05 00:07:22;;;;;;;;;;;20.30;99.90;;;;;;5025183;28;19913;-85
2022/07/05 00:09:50;;;;;;;;;;;20.30;99.90;;;;;;5025204;28;19920;-85
2022/07/05 00:12:16;;;;;;;;;;;20.30;99.90;;;;;;5025550;28;19947;-85
2022/07/05 00:14:42;;;;;;;;;;;20.30;99.90;;;;;;5024721;28;20369;-85
2022/07/05 00:17:08;;;;;;;;;;;20.20;99.90;;;;;;5009715;28;19913;-85
2022/07/05 00:19:34;;;;;;;;;;;20.10;99.90;;;;;;5007240;28;20440;-84
2022/07/05 00:21:59;;;;;;;;;;;20.20;99.90;;;;;;5024790;28;19991;-85
2022/07/05 00:24:25;;;;;;;;;;;20.10;99.90;;;;;;5025281;28;19924;-85
2022/07/05 00:26:51;;;;;;;;;;;20.10;99.90;;;;;;5024909;28;19917;-85
2022/07/05 00:29:17;;;;;;;;;;;20.10;99.90;;;;;;5024483;28;20479;-85
2022/07/05 00:31:42;;;;;;;;;;;20.00;99.90;;;;;;5025459;28;19974;-85
2022/07/05 00:34:08;;;;;;;;;;;19.90;99.90;;;;;;5025663;28;19916;-85
2022/07/05 00:36:33;;;;;;;;;;;19.90;99.90;;;;;;5025786;28;19909;-85
2022/07/05 00:38:59;;;;;;;;;;;19.90;99.90;;;;;;5007085;28;19944;-84
2022/07/05 00:41:25;;;;;;;;;;;19.90;99.90;;;;;;5024871;28;19991;-85
2022/07/05 00:43:54;;;;;;;;;;;19.90;99.90;;;;;;5023998;28;20573;-84
2022/07/05 00:46:20;;;;;;;;;;;19.80;99.90;;;;;;5024017;28;19944;-85
2022/07/05 00:48:46;;;;;;;;;;;19.90;99.90;;;;;;5024830;28;20385;-85
2022/07/05 00:51:11;;;;;;;;;;;20.00;99.90;;;;;;5025197;28;19948;-85
2022/07/05 00:53:37;;;;;;;;;;;20.00;99.90;;;;;;5024781;28;19924;-84
2022/07/05 00:56:03;;;;;;;;;;;20.00;99.90;;;;;;5024934;28;19913;-85
2022/07/05 00:58:29;;;;;;;;;;;19.90;99.90;;;;;;5024357;28;19913;-85
2022/07/05 01:00:55;;;;;;;;;;;19.90;99.90;;;;;;5006577;28;20373;-84
2022/07/05 01:03:20;;;;;;;;;;;19.90;99.90;;;;;;5024997;28;19916;-85
2022/07/05 01:05:46;;;;;;;;;;;19.90;99.90;;;;;;5024632;28;19932;-86
2022/07/05 01:08:13;;;;;;;;;;;19.90;99.90;;;;;;5024272;28;19913;-85
2022/07/05 01:10:38;;;;;;;;;;;19.90;99.90;;;;;;5024091;28;19963;-85
2022/07/05 01:13:04;;;;;;;;;;;19.90;99.90;;;;;;5024674;28;19937;-85
2022/07/05 01:15:30;;;;;;;;;;;19.90;99.90;;;;;;5024389;28;20381;-85
2022/07/05 01:17:55;;;;;;;;;;;19.80;99.90;;;;;;5024162;28;19913;-84
2022/07/05 01:20:21;;;;;;;;;;;19.90;99.90;;;;;;5024968;28;19977;-84
2022/07/05 01:22:50;;;;;;;;;;;19.90;99.90;;;;;;5024270;28;20004;-85
2022/07/05 01:25:16;;;;;;;;;;;19.90;99.90;;;;;;5023954;28;19921;-85
2022/07/05 01:27:42;;;;;;;;;;;19.80;99.90;;;;;;5024184;28;19916;-85
2022/07/05 01:30:09;;;;;;;;;;;19.70;99.90;;;;;;5005643;28;19929;-85
2022/07/05 01:32:34;;;;;;;;;;;19.60;99.90;;;;;;5023860;28;20305;-86
2022/07/05 01:35:00;;;;;;;;;;;19.60;99.90;;;;;;5024315;28;20494;-86
2022/07/05 01:37:25;;;;;;;;;;;19.50;99.90;;;;;;5023535;28;19913;-85
2022/07/05 01:39:51;;;;;;;;;;;19.50;99.90;;;;;;5023548;28;19913;-85
2022/07/05 01:42:16;;;;;;;;;;;19.40;99.90;;;;;;5023364;28;20546;-85
2022/07/05 01:44:42;;;;;;;;;;;19.30;99.90;;;;;;5021309;28;20021;-85
2022/07/05 01:47:07;;;;;;;;;;;19.30;99.90;;;;;;5010781;28;20446;-85
2022/07/05 01:49:40;;;;;;;;;;;19.30;99.90;;;;;;5023184;28;20451;-86
2022/07/05 01:52:10;;;;;;;;;;;19.20;99.90;;;;;;5023670;28;19920;-84
2022/07/05 01:54:35;;;;;;;;;;;19.10;99.90;;;;;;5023094;28;20297;-84
2022/07/05 01:57:01;;;;;;;;;;;19.10;99.90;;;;;;5005133;28;19913;-86
2022/07/05 01:59:27;;;;;;;;;;;19.10;99.90;;;;;;5023185;28;19962;-85
2022/07/05 02:01:53;;;;;;;;;;;19.10;99.90;;;;;;5023369;28;19919;-85
2022/07/05 02:04:18;;;;;;;;;;;19.10;99.90;;;;;;5022796;28;20314;-86
2022/07/05 02:06:45;;;;;;;;;;;19.10;99.90;;;;;;5023162;28;19917;-85
2022/07/05 02:09:11;;;;;;;;;;;19.10;99.90;;;;;;5023065;28;20577;-85
2022/07/05 02:11:36;;;;;;;;;;;19.00;99.90;;;;;;5022998;28;19986;-85
2022/07/05 02:14:02;;;;;;;;;;;19.10;99.90;;;;;;5023629;28;20507;-84
2022/07/05 02:16:27;;;;;;;;;;;19.10;99.90;;;;;;5023246;28;19916;-85
2022/07/05 02:18:53;;;;;;;;;;;19.00;99.90;;;;;;5022886;28;20094;-85
2022/07/05 02:21:19;;;;;;;;;;;18.90;99.90;;;;;;5022726;28;19913;-86
2022/07/05 02:23:45;;;;;;;;;;;18.90;99.90;;;;;;5022879;28;19912;-85
2022/07/05 02:26:10;;;;;;;;;;;18.80;99.90;;;;;;5022455;28;20668;-85
2022/07/05 02:28:36;;;;;;;;;;;18.70;99.90;;;;;;5004764;28;19924;-84
2022/07/05 02:31:02;;;;;;;;;;;18.70;99.90;;;;;;5022837;28;19921;-85
2022/07/05 02:33:27;;;;;;;;;;;18.70;99.90;;;;;;5022767;28;19917;-84
2022/07/05 02:35:53;;;;;;;;;;;18.70;99.90;;;;;;5023177;28;20278;-84
2022/07/05 02:38:18;;;;;;;;;;;18.60;99.90;;;;;;5022889;28;19949;-84
2022/07/05 02:40:44;;;;;;;;;;;18.60;99.90;;;;;;5022956;28;19920;-85
2022/07/05 02:43:09;;;;;;;;;;;18.70;99.90;;;;;;5023925;28;19909;-86
2022/07/05 02:45:35;;;;;;;;;;;18.60;99.90;;;;;;5023447;28;20456;-85
2022/07/05 02:48:00;;;;;;;;;;;18.60;99.90;;;;;;5023049;28;19970;-85
2022/07/05 02:50:26;;;;;;;;;;;18.50;99.90;;;;;;5005226;28;20004;-85
2022/07/05 02:52:51;;;;;;;;;;;18.50;99.90;;;;;;5024865;28;19912;-85
2022/07/05 02:55:17;;;;;;;;;;;18.40;99.90;;;;;;5026566;28;20301;-85
2022/07/05 02:57:42;;;;;;;;;;;18.40;99.90;;;;;;5027007;28;20334;-85
2022/07/05 03:00:08;;;;;;;;;;;18.30;99.90;;;;;;5026321;28;19913;-85
2022/07/05 03:02:34;;;;;;;;;;;18.30;99.90;;;;;;5026632;28;19960;-84
2022/07/05 03:04:59;;;;;;;;;;;18.20;99.90;;;;;;5026812;28;19975;-84
2022/07/05 03:07:25;;;;;;;;;;;18.30;99.90;;;;;;5026846;28;19942;-84
2022/07/05 03:09:50;;;;;;;;;;;18.20;99.90;;;;;;5026799;28;19940;-85
2022/07/05 03:12:16;;;;;;;;;;;18.30;99.90;;;;;;5026347;28;19952;-85
2022/07/05 03:14:41;;;;;;;;;;;18.30;99.90;;;;;;5026697;28;20015;-84
2022/07/05 03:17:07;;;;;;;;;;;18.20;99.90;;;;;;5026884;28;20675;-85
2022/07/05 03:19:32;;;;;;;;;;;18.10;99.90;;;;;;5026559;28;19996;-85
2022/07/05 03:21:58;;;;;;;;;;;18.20;99.90;;;;;;5026993;28;20007;-87
2022/07/05 03:24:23;;;;;;;;;;;18.10;99.90;;;;;;5026410;28;19948;-85
2022/07/05 03:26:49;;;;;;;;;;;18.10;99.90;;;;;;5026017;28;19913;-85
2022/07/05 03:29:15;;;;;;;;;;;18.10;99.90;;;;;;5026287;28;19967;-84
2022/07/05 03:31:40;;;;;;;;;;;18.10;99.90;;;;;;5021016;28;19929;-85
2022/07/05 03:34:06;;;;;;;;;;;18.10;99.90;;;;;;5025868;28;19920;-84
2022/07/05 03:36:31;;;;;;;;;;;18.10;99.90;;;;;;5025636;28;20023;-84
2022/07/05 03:38:57;;;;;;;;;;;18.10;99.90;;;;;;5025637;28;19920;-86
2022/07/05 03:41:22;;;;;;;;;;;18.10;99.90;;;;;;5008127;28;19919;-85
2022/07/05 03:43:48;;;;;;;;;;;18.00;99.90;;;;;;5026479;28;20328;-84
2022/07/05 03:46:13;;;;;;;;;;;17.90;99.90;;;;;;5026068;28;20409;-85
2022/07/05 03:48:39;;;;;;;;;;;17.90;99.90;;;;;;5026198;28;19936;-85
2022/07/05 03:51:05;;;;;;;;;;;17.80;99.90;;;;;;5026221;28;20378;-85
2022/07/05 03:53:30;;;;;;;;;;;17.80;99.90;;;;;;5026197;28;19952;-84
2022/07/05 03:55:56;;;;;;;;;;;17.70;99.90;;;;;;5026073;28;19912;-85
2022/07/05 03:58:21;;;;;;;;;;;17.70;99.90;;;;;;5026362;28;20794;-85
2022/07/05 04:00:47;;;;;;;;;;;17.70;99.90;;;;;;5026059;28;20362;-84
2022/07/05 04:03:12;;;;;;;;;;;17.70;99.90;;;;;;5025735;28;20416;-85
2022/07/05 04:05:39;;;;;;;;;;;17.70;99.90;;;;;;5025389;28;20389;-85
2022/07/05 04:08:04;;;;;;;;;;;17.60;99.90;;;;;;5025805;28;20004;-85
2022/07/05 04:10:30;;;;;;;;;;;17.60;99.90;;;;;;5026131;28;20007;-84
2022/07/05 04:12:56;;;;;;;;;;;17.50;99.90;;;;;;5025401;28;20479;-84
2022/07/05 04:15:21;;;;;;;;;;;17.50;99.90;;;;;;5025811;28;20046;-85
2022/07/05 04:17:50;;;;;;;;;;;17.50;99.90;;;;;;5025965;28;19940;-84
2022/07/05 04:20:16;;;;;;;;;;;17.50;99.90;;;;;;5025691;28;19913;-85
2022/07/05 04:22:42;;;;;;;;;;;17.50;99.90;;;;;;5025508;28;19982;-84
2022/07/05 04:25:17;;;;;;;;;;;17.50;99.90;;;;;;5025359;28;19964;-85
2022/07/05 04:27:43;;;;;;;;;;;17.60;99.90;;;;;;5020686;28;19955;-85
2022/07/05 04:30:09;;;;;;;;;;;17.80;99.90;;;;;;5025258;28;19917;-86
2022/07/05 04:32:34;;;;;;;;;;;17.90;99.90;;;;;;5024908;28;19928;-85
2022/07/05 04:35:00;;;;;;;;;;;18.30;99.90;;;;;;5024832;28;19920;-86
2022/07/05 04:37:25;;;;;;;;;;;18.60;99.90;;;;;;5024940;28;19913;-87
2022/07/05 04:39:51;;;;;;;;;;;18.80;99.90;;;;;;5025639;28;19913;-86
2022/07/05 04:42:16;;;;;;;;;;;19.00;99.90;;;;;;5026039;28;20271;-85
2022/07/05 04:44:42;;;;;;;;;;;19.10;99.90;;;;;;5007590;28;20702;-88
2022/07/05 04:47:08;;;;;;;;;;;19.20;99.90;;;;;;5027782;28;19916;-91
2022/07/05 04:49:33;;;;;;;;;;;19.30;99.90;;;;;;5028456;28;20282;-89
2022/07/05 04:51:59;;;;;;;;;;;19.50;99.90;;;;;;5020226;28;19919;-88
2022/07/05 04:54:25;;;;;;;;;;;19.50;99.90;;;;;;5025252;28;19913;-87
2022/07/05 04:56:50;;;;;;;;;;;19.70;99.90;;;;;;5024755;28;19913;-87
2022/07/05 04:59:16;;;;;;;;;;;20.30;99.90;;;;;;5025945;28;20497;-88
2022/07/05 05:01:41;;;;;;;;;;;20.50;99.90;;;;;;5027937;28;20290;-88
2022/07/05 05:04:07;;;;;;;;;;;20.70;99.90;;;;;;5024326;28;20003;-87
2022/07/05 05:06:32;;;;;;;;;;;20.90;99.90;;;;;;5023591;28;20062;-87
2022/07/05 05:08:58;;;;;;;;;;;21.10;99.90;;;;;;5024271;28;19913;-86
2022/07/05 05:11:23;;;;;;;;;;;21.20;99.90;;;;;;5024529;28;20297;-88
2022/07/05 05:13:49;;;;;;;;;;;21.40;99.90;;;;;;5023887;28;19913;-89
2022/07/05 05:16:15;;;;;;;;;;;21.40;99.90;;;;;;5023531;28;19916;-87
2022/07/05 05:18:40;;;;;;;;;;;21.00;99.90;;;;;;5024549;28;19915;-86
2022/07/05 05:21:06;;;;;;;;;;;21.10;99.90;;;;;;5025219;28;20378;-87
2022/07/05 05:23:31;;;;;;;;;;;22.40;99.90;;;;;;5023901;28;19940;-86
2022/07/05 05:25:57;;;;;;;;;;;23.10;99.90;;;;;;5005731;28;20040;-87
2022/07/05 05:28:22;;;;;;;;;;;23.60;99.90;;;;;;5023898;28;20669;-86
2022/07/05 05:30:48;;;;;;;;;;;23.80;99.90;;;;;;5023969;28;19912;-87
2022/07/05 05:33:13;;;;;;;;;;;24.10;99.90;;;;;;5023148;28;19916;-87
2022/07/05 05:35:39;;;;;;;;;;;24.40;97.60;;;;;;5022953;28;20335;-85
2022/07/05 05:38:04;;;;;;;;;;;24.80;94.80;;;;;;5005681;28;19909;-87
2022/07/05 05:40:30;;;;;;;;;;;25.00;93.00;;;;;;5023459;28;19920;-87
2022/07/05 05:42:56;;;;;;;;;;;25.30;92.50;;;;;;5022964;28;20571;-85
2022/07/05 05:45:22;;;;;;;;;;;26.00;90.60;;;;;;5022033;28;20015;-86
2022/07/05 05:47:57;;;;;;;;;;;26.30;88.40;;;;;;5003096;28;19920;-86
2022/07/05 05:50:24;;;;;;;;;;;26.60;86.40;;;;;;5021762;28;19913;-88
2022/07/05 05:52:50;;;;;;;;;;;26.60;84.00;;;;;;5022126;28;19917;-87
2022/07/05 05:55:16;;;;;;;;;;;26.70;83.20;;;;;;5023683;28;19913;-87
2022/07/05 05:57:41;;;;;;;;;;;27.30;82.40;;;;;;5005572;28;19919;-85
2022/07/05 06:00:07;;;;;;;;;;;27.30;80.30;;;;;;5003522;28;20309;-86
2022/07/05 06:02:33;;;;;;;;;;;27.60;76.20;;;;;;5023834;28;19913;-86
2022/07/05 06:04:59;;;;;;;;;;;27.70;78.10;;;;;;5022438;28;19917;-84
2022/07/05 06:07:24;;;;;;;;;;;27.70;77.30;;;;;;5005650;28;20354;-86
2022/07/05 06:09:50;;;;;;;;;;;27.60;73.70;;;;;;5022771;28;19913;-87
2022/07/05 06:12:15;;;;;;;;;;;27.40;74.90;;;;;;5023326;28;19913;-87
2022/07/05 06:14:41;;;;;;;;;;;28.10;72.50;;;;;;5003398;28;19923;-85
2022/07/05 06:17:06;;;;;;;;;;;28.80;71.00;;;;;;5029493;28;19956;-85
2022/07/05 06:19:32;;;;;;;;;;;28.60;72.00;;;;;;5021846;28;19948;-85
2022/07/05 06:21:57;;;;;;;;;;;29.10;71.10;;;;;;5004143;28;20032;-86
2022/07/05 06:24:23;;;;;;;;;;;29.10;69.80;;;;;;4999835;28;19912;-86
2022/07/05 06:26:48;;;;;;;;;;;29.20;67.70;;;;;;5023997;28;20015;-85
2022/07/05 06:29:14;;;;;;;;;;;28.90;67.50;;;;;;5012723;28;19912;-84
2022/07/05 06:31:39;;;;;;;;;;;29.00;67.40;;;;;;5027886;28;20022;-85
2022/07/05 06:34:05;;;;;;;;;;;28.80;65.30;;;;;;5027926;28;19913;-86
2022/07/05 06:36:30;;;;;;;;;;;28.10;65.90;;;;;;5029419;28;19916;-84
2022/07/05 06:38:56;;;;;;;;;;;28.80;65.60;;;;;;5028173;28;20970;-84
2022/07/05 06:41:21;;;;;;;;;;;28.80;64.90;;;;;;5027796;28;20603;-86
2022/07/05 06:43:47;;;;;;;;;;;29.30;64.70;;;;;;5022773;28;19917;-85
2022/07/05 06:46:12;;;;;;;;;;;29.90;62.70;;;;;;5028522;28;20011;-84
2022/07/05 06:48:39;;;;;;;;;;;28.90;62.80;;;;;;5029680;28;19936;-86
2022/07/05 06:51:04;;;;;;;;;;;28.50;65.50;;;;;;5029661;28;19909;-84
2022/07/05 06:53:30;;;;;;;;;;;28.70;65.10;;;;;;5026629;28;20301;-86
2022/07/05 06:55:55;;;;;;;;;;;29.10;64.70;;;;;;5011391;28;20449;-85
2022/07/05 06:58:21;;;;;;;;;;;29.80;63.40;;;;;;5028634;28;19909;-85
2022/07/05 07:00:46;;;;;;;;;;;29.90;62.50;;;;;;5021680;28;19913;-85
2022/07/05 07:03:12;;;;;;;;;;;29.80;61.60;;;;;;5018951;28;19913;-85
2022/07/05 07:05:37;;;;;;;;;;;30.20;61.00;;;;;;5018454;28;19926;-85
2022/07/05 07:10:48;;;;;;;;;;;29.40;63.60;;;;;;5012152;28;19921;-84
2022/07/05 07:13:13;;;;;;;;;;;29.40;61.90;;;;;;5017723;28;20565;-85
2022/07/05 07:15:40;;;;;;;;;;;30.10;62.20;;;;;;5013177;28;20396;-85
2022/07/05 07:18:06;;;;;;;;;;;29.80;60.10;;;;;;5014738;28;19920;-87
2022/07/05 07:20:31;;;;;;;;;;;29.70;62.00;;;;;;5019641;28;20000;-85
2022/07/05 07:22:57;;;;;;;;;;;30.40;59.30;;;;;;5016950;28;19927;-86
2022/07/05 07:25:25;;;;;;;;;;;30.50;59.80;;;;;;5019237;28;19999;-87
2022/07/05 07:27:52;;;;;;;;;;;31.00;58.70;;;;;;5019197;28;20628;-86
2022/07/05 07:30:19;;;;;;;;;;;31.10;59.20;;;;;;5012327;28;19975;-86
2022/07/05 07:32:45;;;;;;;;;;;31.60;58.00;;;;;;5019530;28;20821;-86
2022/07/05 07:35:11;;;;;;;;;;;30.90;56.70;;;;;;5016490;28;19920;-85
2022/07/05 07:37:37;;;;;;;;;;;31.40;57.40;;;;;;5017515;28;19914;-85
2022/07/05 07:40:03;;;;;;;;;;;31.50;57.00;;;;;;5012426;28;21577;-86
2022/07/05 07:42:29;;;;;;;;;;;31.10;55.30;;;;;;5011913;28;19913;-86
2022/07/05 07:44:54;;;;;;;;;;;32.60;56.80;;;;;;5014864;28;19912;-85
2022/07/05 07:47:20;;;;;;;;;;;31.70;56.40;;;;;;5014491;28;19913;-85
2022/07/05 07:49:45;;;;;;;;;;;32.40;55.80;;;;;;5020002;28;19919;-82
2022/07/05 07:52:11;;;;;;;;;;;32.50;56.60;;;;;;5009438;28;19923;-83
2022/07/05 07:54:36;;;;;;;;;;;33.20;54.60;;;;;;5024036;28;19928;-84
2022/07/05 07:57:04;;;;;;;;;;;34.30;52.80;;;;;;5024869;28;19923;-83
2022/07/05 07:59:33;;;;;;;;;;;33.90;53.90;;;;;;5025127;28;19991;-84
2022/07/05 08:01:58;;;;;;;;;;;34.50;51.90;;;;;;5020780;28;20000;-84
2022/07/05 08:04:24;;;;;;;;;;;33.60;52.00;;;;;;5011275;28;20433;-85
2022/07/05 08:06:49;;;;;;;;;;;34.40;51.10;;;;;;5016868;28;19912;-83
2022/07/05 08:09:15;;;;;;;;;;;34.60;51.90;;;;;;5010917;28;19913;-84
2022/07/05 08:11:41;;;;;;;;;;;35.00;52.20;;;;;;5018381;28;19919;-84
2022/07/05 08:14:06;;;;;;;;;;;36.00;50.80;;;;;;5023788;28;19913;-84
2022/07/05 08:16:32;;;;;;;;;;;35.50;50.40;;;;;;5023296;28;19917;-85
2022/07/05 08:21:43;;;;;;;;;;;36.20;49.10;;;;;;5022980;28;19959;-84
2022/07/05 08:24:09;;;;;;;;;;;36.40;50.20;;;;;;5018205;28;19917;-83
2022/07/05 08:26:35;;;;;;;;;;;35.60;50.70;;;;;;5021656;28;19956;-84
2022/07/05 08:29:01;;;;;;;;;;;35.50;51.20;;;;;;5024057;28;19916;-83
2022/07/05 08:31:27;;;;;;;;;;;36.90;49.00;;;;;;5023586;28;19921;-83
2022/07/05 08:33:53;;;;;;;;;;;36.60;47.30;;;;;;5022168;28;19913;-84
2022/07/05 08:36:19;;;;;;;;;;;36.70;48.90;;;;;;5024704;28;19920;-83
2022/07/05 08:38:44;;;;;;;;;;;35.80;49.70;;;;;;5024544;28;19959;-83
2022/07/05 08:41:10;;;;;;;;;;;36.60;48.50;;;;;;5024177;28;19923;-83
2022/07/05 08:43:37;;;;;;;;;;;37.50;48.40;;;;;;5022103;28;20328;-83
2022/07/05 08:46:03;;;;;;;;;;;37.30;47.40;;;;;;5024266;28;19909;-84
2022/07/05 08:48:29;;;;;;;;;;;37.90;47.70;;;;;;5023774;28;20000;-85
2022/07/05 08:50:56;;;;;;;;;;;37.30;46.80;;;;;;5022537;28;20023;-84
2022/07/05 08:53:21;;;;;;;;;;;37.30;46.90;;;;;;5021108;28;19920;-83
2022/07/05 08:55:47;;;;;;;;;;;36.40;47.00;;;;;;5021807;28;19925;-84
2022/07/05 08:58:13;;;;;;;;;;;36.50;47.00;;;;;;5023395;28;19979;-83
2022/07/05 09:00:39;;;;;;;;;;;37.30;48.00;;;;;;5013400;28;19909;-83
2022/07/05 09:03:06;;;;;;;;;;;36.80;44.50;;;;;;4997197;28;19936;-84
2022/07/05 09:05:33;;;;;;;;;;;37.60;44.90;;;;;;5020799;28;19912;-83
2022/07/05 09:07:59;;;;;;;;;;;37.10;47.40;;;;;;5021825;28;19913;-84
2022/07/05 09:10:29;;;;;;;;;;;37.60;46.50;;;;;;5008979;28;20691;-84
2022/07/05 09:12:55;;;;;;;;;;;37.90;44.30;;;;;;5021232;28;19913;-84
2022/07/05 09:15:21;;;;;;;;;;;38.70;43.70;;;;;;5021935;28;19921;-85
2022/07/05 09:17:47;;;;;;;;;;;37.90;44.50;;;;;;5022452;28;19913;-85
2022/07/05 09:20:17;;;;;;;;;;;38.70;45.90;;;;;;5022558;28;19917;-84
2022/07/05 09:22:42;;;;;;;;;;;38.00;42.60;;;;;;5019285;28;19917;-83
2022/07/05 09:25:14;;;;;;;;;;;38.70;44.00;;;;;;5022712;28;19909;-83
2022/07/05 09:28:00;;;;;;;;;;;38.80;43.90;;;;;;5005225;28;19920;-84
2022/07/05 09:30:26;;;;;;;;;;;38.60;43.20;;;;;;5018596;28;19920;-85
2022/07/05 09:33:09;;;;;;;;;;;37.10;45.80;;;;;;5021038;28;20737;-86
2022/07/05 09:35:36;;;;;;;;;;;37.80;43.90;;;;;;5021977;28;19917;-87
2022/07/05 09:38:04;;;;;;;;;;;37.60;43.60;;;;;;5021683;28;19919;-85
2022/07/05 09:40:31;;;;;;;;;;;39.70;43.80;;;;;;5023191;28;19944;-85
2022/07/05 09:43:13;;;;;;;;;;;39.50;43.60;;;;;;5023100;28;20126;-83
2022/07/05 09:45:38;;;;;;;;;;;40.10;43.50;;;;;;5023099;28;19959;-84
2022/07/05 09:48:06;;;;;;;;;;;38.60;43.00;;;;;;5023353;28;19913;-83
2022/07/05 09:50:32;;;;;;;;;;;39.10;43.70;;;;;;5023328;28;19940;-83
2022/07/05 09:52:58;;;;;;;;;;;39.70;41.10;;;;;;5021554;28;19913;-84
2022/07/05 09:55:23;;;;;;;;;;;40.40;42.60;;;;;;5004626;28;19921;-83
2022/07/05 09:57:50;;;;;;;;;;;39.50;41.30;;;;;;5022512;28;20579;-85
2022/07/05 10:00:17;;;;;;;;;;;38.70;39.60;;;;;;5022709;28;19913;-84
2022/07/05 10:02:50;;;;;;;;;;;38.10;43.10;;;;;;5010241;28;20369;-84
2022/07/05 10:05:17;;;;;;;;;;;37.60;42.00;;;;;;5022036;28;19944;-83
2022/07/05 10:07:47;;;;;;;;;;;38.30;40.40;;;;;;5022002;28;19913;-84
2022/07/05 10:10:18;;;;;;;;;;;38.50;41.20;;;;;;5022484;28;19932;-84
2022/07/05 10:12:44;;;;;;;;;;;39.50;40.00;;;;;;5021142;28;20523;-83
2022/07/05 10:15:10;;;;;;;;;;;38.50;39.30;;;;;;5021214;28;19924;-83
2022/07/05 10:17:38;;;;;;;;;;;38.30;40.80;;;;;;5022469;28;19917;-83
2022/07/05 10:20:06;;;;;;;;;;;38.20;43.00;;;;;;5019901;28;19917;-82
2022/07/05 10:22:32;;;;;;;;;;;38.10;40.60;;;;;;5018844;28;19916;-83
2022/07/05 10:25:00;;;;;;;;;;;38.90;41.70;;;;;;5001315;28;20003;-82
2022/07/05 10:27:27;;;;;;;;;;;38.40;38.20;;;;;;5021817;28;19924;-83
2022/07/05 10:29:53;;;;;;;;;;;37.50;40.50;;;;;;5022023;28;19948;-83
2022/07/05 10:32:19;;;;;;;;;;;36.80;41.30;;;;;;5020275;28;20690;-83
2022/07/05 10:34:46;;;;;;;;;;;37.70;41.30;;;;;;5020876;28;19917;-83
2022/07/05 10:37:12;;;;;;;;;;;37.30;40.70;;;;;;5022973;28;20046;-85
2022/07/05 10:39:40;;;;;;;;;;;37.20;41.10;;;;;;5021881;28;19917;-84
2022/07/05 10:42:06;;;;;;;;;;;35.80;41.10;;;;;;5020830;28;19979;-84
2022/07/05 10:44:35;;;;;;;;;;;35.80;41.30;;;;;;5022164;28;19917;-86
2022/07/05 10:47:13;;;;;;;;;;;34.00;40.80;;;;;;5018104;28;19963;-83
2022/07/05 10:49:39;;;;;;;;;;;32.30;41.60;;;;;;5020745;28;19928;-82
2022/07/05 10:52:20;;;;;;;;;;;31.70;43.80;;;;;;5019875;28;20007;-84
2022/07/05 10:55:05;;;;;;;;;;;31.80;45.90;;;;;;5020362;28;20293;-84
2022/07/05 10:57:30;;;;;;;;;;;31.20;45.50;;;;;;5021905;28;19917;-84
2022/07/05 11:00:06;;;;;;;;;;;31.00;44.80;;;;;;5022158;28;20031;-87
2022/07/05 11:02:31;;;;;;;;;;;30.90;45.60;;;;;;5021171;28;19920;-86
2022/07/05 11:04:57;;;;;;;;;;;30.40;45.60;;;;;;5022354;28;19913;-86
2022/07/05 11:07:43;;;;;;;;;;;30.70;48.50;;;;;;5021322;28;19915;-85
2022/07/05 11:10:08;;;;;;;;;;;30.20;47.40;;;;;;5021742;28;20462;-86
2022/07/05 11:12:37;;;;;;;;;;;30.50;47.90;;;;;;5020423;28;19908;-85
2022/07/05 11:15:08;;;;;;;;;;;30.30;47.10;;;;;;5024755;28;20027;-84
2022/07/05 11:17:36;;;;;;;;;;;30.10;44.50;;;;;;5025913;28;20003;-86
2022/07/05 11:20:08;;;;;;;;;;;30.10;47.30;;;;;;5026017;28;19927;-82
2022/07/05 11:22:34;;;;;;;;;;;30.00;46.70;;;;;;5024211;28;19913;-83
2022/07/05 11:25:00;;;;;;;;;;;29.70;47.30;;;;;;5024714;28;19913;-86
2022/07/05 11:27:26;;;;;;;;;;;30.10;48.60;;;;;;5008389;28;19920;-84
2022/07/05 11:29:53;;;;;;;;;;;29.80;49.90;;;;;;5012618;28;20381;-84
2022/07/05 11:32:20;;;;;;;;;;;29.70;50.30;;;;;;5016353;28;19921;-84
2022/07/05 11:34:47;;;;;;;;;;;29.60;48.30;;;;;;5003696;28;19913;-84
2022/07/05 11:37:15;;;;;;;;;;;29.70;48.80;;;;;;5020418;28;19972;-83
2022/07/05 11:39:41;;;;;;;;;;;29.90;50.20;;;;;;5024046;28;19994;-86
2022/07/05 11:42:10;;;;;;;;;;;29.70;49.80;;;;;;5023763;28;19909;-85
2022/07/05 11:44:36;;;;;;;;;;;29.40;49.50;;;;;;5024436;28;19966;-86
2022/07/05 11:47:03;;;;;;;;;;;29.50;51.60;;;;;;5027809;28;19968;-84
2022/07/05 11:49:28;;;;;;;;;;;29.10;55.40;;;;;;5001674;28;19916;-84
2022/07/05 11:51:55;;;;;;;;;;;29.00;48.80;;;;;;5019017;28;19913;-85
2022/07/05 11:54:29;;;;;;;;;;;29.00;49.50;;;;;;5023944;28;19940;-85
2022/07/05 11:56:55;;;;;;;;;;;29.00;51.00;;;;;;5018824;28;19953;-84
2022/07/05 11:59:22;;;;;;;;;;;28.80;46.70;;;;;;5009735;28;19986;-84
2022/07/05 12:01:47;;;;;;;;;;;28.70;49.90;;;;;;5023227;28;19920;-85
2022/07/05 12:04:27;;;;;;;;;;;29.20;53.50;;;;;;5022608;28;20293;-84
2022/07/05 12:06:52;;;;;;;;;;;29.20;53.70;;;;;;5021078;28;19913;-83
2022/07/05 12:12:42;;;;;;;;;;;29.00;51.90;;;;;;5017841;28;20062;-84
2022/07/05 12:15:05;;;;;;;;;;;29.10;53.80;;;;;;5024107;28;20538;-84
2022/07/05 12:17:33;;;;;;;;;;;29.20;54.00;;;;;;5022490;28;19971;-85
2022/07/05 12:19:59;;;;;;;;;;;29.30;53.50;;;;;;5022108;28;19920;-84
2022/07/05 12:22:30;;;;;;;;;;;29.50;55.10;;;;;;5022593;28;19917;-84
2022/07/05 12:24:58;;;;;;;;;;;29.70;55.20;;;;;;5002747;28;19913;-83
2022/07/05 12:27:24;;;;;;;;;;;29.70;54.40;;;;;;5022897;28;19909;-83
2022/07/05 12:29:50;;;;;;;;;;;29.80;54.70;;;;;;5024821;28;19954;-84
2022/07/05 12:32:15;;;;;;;;;;;29.50;53.40;;;;;;5023167;28;19921;-84
2022/07/05 12:34:41;;;;;;;;;;;29.40;55.10;;;;;;5023262;28;19921;-83
2022/07/05 12:37:06;;;;;;;;;;;29.40;55.80;;;;;;5023521;28;20520;-84
2022/07/05 12:39:32;;;;;;;;;;;28.80;51.60;;;;;;5023423;28;19917;-83
2022/07/05 12:41:57;;;;;;;;;;;29.00;55.10;;;;;;5021774;28;19917;-84
2022/07/05 12:44:23;;;;;;;;;;;29.30;56.10;;;;;;5020042;28;20373;-83
2022/07/05 12:46:49;;;;;;;;;;;29.70;57.00;;;;;;5023770;28;20364;-84
2022/07/05 12:49:15;;;;;;;;;;;29.40;51.60;;;;;;5024248;28;19916;-84
2022/07/05 12:51:41;;;;;;;;;;;29.00;54.10;;;;;;5023171;28;19913;-85
2022/07/05 12:59:38;;;;;;;;;;;29.00;59.60;;;;;;5022389;28;19920;-82
2022/07/05 13:02:03;;;;;;;;;;;28.90;58.70;;;;;;5022086;28;19924;-83
2022/07/05 13:04:29;;;;;;;;;;;28.80;59.10;;;;;;5021745;28;19919;-83
2022/07/05 13:07:02;;;;;;;;;;;29.00;56.70;;;;;;5023123;28;19935;-83
2022/07/05 13:09:28;;;;;;;;;;;29.10;57.20;;;;;;5022980;28;19913;-83
2022/07/05 13:12:06;;;;;;;;;;;29.40;59.10;;;;;;5017642;28;20743;-84
2022/07/05 13:14:32;;;;;;;;;;;29.30;59.50;;;;;;5020540;28;19913;-84
2022/07/05 13:16:57;;;;;;;;;;;29.20;57.80;;;;;;5016620;28;19928;-83
2022/07/05 13:19:23;;;;;;;;;;;28.60;54.60;;;;;;5012287;28;19923;-83
2022/07/05 13:21:48;;;;;;;;;;;28.80;57.10;;;;;;4998505;28;20002;-83
2022/07/05 13:24:14;;;;;;;;;;;28.90;58.10;;;;;;5014884;28;20004;-84
2022/07/05 13:26:39;;;;;;;;;;;28.80;55.00;;;;;;5014060;28;20293;-84
2022/07/05 13:29:05;;;;;;;;;;;28.60;55.00;;;;;;5010010;28;19913;-83
2022/07/05 13:31:30;;;;;;;;;;;28.70;56.50;;;;;;5008394;28;19921;-83
2022/07/05 13:33:57;;;;;;;;;;;28.70;58.30;;;;;;5000136;28;19912;-83
2022/07/05 13:36:22;;;;;;;;;;;28.70;56.30;;;;;;5005203;28;19917;-83
2022/07/05 13:38:48;;;;;;;;;;;28.50;58.00;;;;;;5006143;28;19959;-83
2022/07/05 13:41:13;;;;;;;;;;;28.40;60.00;;;;;;5012175;28;19917;-83
2022/07/05 13:43:39;;;;;;;;;;;28.60;59.10;;;;;;5012202;28;19913;-83
2022/07/05 13:46:05;;;;;;;;;;;28.30;55.00;;;;;;5009530;28;19920;-84
2022/07/05 13:48:30;;;;;;;;;;;28.10;53.60;;;;;;5008206;28;20000;-84
2022/07/05 13:50:56;;;;;;;;;;;28.10;55.80;;;;;;5012582;28;19924;-84
2022/07/05 13:53:22;;;;;;;;;;;28.30;59.10;;;;;;5016769;28;19975;-83
2022/07/05 13:55:47;;;;;;;;;;;28.30;58.20;;;;;;5015137;28;19999;-84
2022/07/05 13:58:13;;;;;;;;;;;28.20;56.50;;;;;;5018674;28;19940;-83
2022/07/05 14:00:38;;;;;;;;;;;28.20;58.10;;;;;;5018868;28;20708;-83
2022/07/05 14:03:04;;;;;;;;;;;28.10;54.40;;;;;;4998258;28;20417;-82
2022/07/05 14:05:29;;;;;;;;;;;27.80;53.60;;;;;;5001211;28;19914;-83
2022/07/05 14:07:55;;;;;;;;;;;27.80;53.40;;;;;;5013422;28;19909;-82
2022/07/05 14:10:20;;;;;;;;;;;27.90;55.40;;;;;;5019582;28;19955;-83
2022/07/05 14:12:46;;;;;;;;;;;27.90;56.00;;;;;;5014015;28;19909;-83
2022/07/05 14:15:11;;;;;;;;;;;28.00;56.30;;;;;;5020967;28;19917;-82
2022/07/05 14:17:37;;;;;;;;;;;27.90;56.00;;;;;;5000174;28;19913;-82
2022/07/05 14:20:03;;;;;;;;;;;28.00;56.60;;;;;;5018575;28;19936;-82
2022/07/05 14:22:29;;;;;;;;;;;27.90;55.10;;;;;;5018100;28;19924;-84
2022/07/05 14:24:54;;;;;;;;;;;27.80;54.50;;;;;;5018964;28;19917;-84